No Joy

12:24 PM Tuesday, February 22, 2011

Well it appears that the weather has once again foiled my plans. I had been planning to take the hubby up for a ride today (I have been watching the weather for a week hoping it would work out). Well it appears it isn't going to happen.

Current METAR: KDVN 221752Z AUTO 06004KT 7SM OVC012 M03/M06 A3022 RMK AO2 SLP244 T10281061 11022 21039 51021

Although I could take him up for some pattern work that wouldn't be a fun first ride, so I guess it is postponed once again. Someday I will get to take up a passenger.

On another note, my official license came in the mail today! How awesome is that?!

0 comments:

Post a Comment